KCKF

Crisp County-Cordele Airport

Cordele, Georgia, USA
METAR KCKF 211955Z AUTO 18003KT 10SM CLR 22/04 A3021 RMK AO2 T02240039
Observed Flight Rules
Jan-21 @ 19:55 UTC (27 minutes ago) Visual Flight Rules
Wind Visibility Clouds
180° at 3 knots 10 miles
  • Clear skies
Temperatures Readings
Current 22°C / 72°F
Dewpoint 4°C / 39°F
Humidity 31%
Altimeter 30.21" Hg
Pressure 1023 hPa
Elevation 91
METAR KCKF 211955Z AUTO 18003KT 10SM CLR 22/04 A3021 RMK AO2 T02240039
Observed Flight Rules
Jan-21 @ 19:55 UTC
(27 minutes ago)
VFR
Wind Visibility
180° at 3 knots 10 miles
Clouds
  • Clear skies
Temperature Dewpoint
22°C / 72°F 4°C / 39°F
Humidity Altimeter Pressure
31% 30.21" Hg 1023 hPa